createdAt,value
2023-02-21T00:02:08.671Z,8.32
2023-02-21T00:04:53.797Z,8.52
2023-02-21T00:07:39.012Z,8.52
2023-02-21T00:10:27.578Z,8.56
2023-02-21T00:13:11.802Z,8.35
2023-02-21T00:15:55.905Z,8.46
2023-02-21T00:18:43.124Z,8.39
2023-02-21T00:21:26.956Z,8.38
2023-02-21T00:24:11.525Z,8.38
2023-02-21T00:26:55.633Z,8.32
2023-02-21T00:29:40.058Z,8.30
2023-02-21T00:32:24.047Z,8.38
2023-02-21T00:35:11.252Z,8.29
2023-02-21T00:37:55.196Z,8.48
2023-02-21T00:40:39.520Z,8.42
2023-02-21T00:43:23.638Z,8.64
2023-02-21T00:46:07.979Z,8.38
2023-02-21T00:48:51.742Z,8.42
2023-02-21T00:51:38.637Z,8.28
2023-02-21T00:54:22.225Z,8.40
2023-02-21T00:57:06.114Z,8.29
2023-02-21T00:59:49.961Z,8.41
2023-02-21T01:02:34.734Z,8.85
2023-02-21T01:05:22.477Z,8.59
2023-02-21T01:08:09.167Z,8.40
2023-02-21T01:10:52.909Z,8.44
2023-02-21T01:13:37.186Z,8.22
2023-02-21T01:16:22.724Z,8.31
2023-02-21T01:19:06.701Z,8.61
2023-02-21T01:21:52.506Z,8.52
2023-02-21T01:24:39.069Z,8.78
2023-02-21T01:27:22.641Z,8.49
2023-02-21T01:30:06.735Z,8.66
2023-02-21T01:32:50.200Z,8.62
2023-02-21T01:35:34.393Z,8.57
2023-02-21T01:38:19.459Z,8.65
2023-02-21T01:41:06.354Z,8.62
2023-02-21T01:43:51.105Z,8.50
2023-02-21T01:46:46.633Z,8.46
2023-02-21T01:49:34.245Z,8.76
2023-02-21T01:52:20.716Z,8.80
2023-02-21T01:55:08.954Z,8.63
2023-02-21T01:57:56.018Z,8.83
2023-02-21T02:00:40.340Z,8.78
2023-02-21T02:03:31.304Z,8.79
2023-02-21T07:39:29.294Z,9.71
2023-02-21T07:42:02.547Z,10.11
2023-02-21T07:44:35.072Z,10.17
2023-02-21T07:47:08.181Z,10.20
2023-02-21T07:49:42.532Z,9.78
2023-02-21T07:52:15.410Z,9.84
2023-02-21T07:55:00.098Z,10.17
2023-02-21T07:57:33.271Z,10.36
2023-02-21T08:00:05.873Z,9.79
2023-02-21T08:02:39.175Z,10.04
2023-02-21T08:05:12.628Z,9.58
2023-02-21T08:07:45.516Z,10.10
2023-02-21T08:10:27.186Z,9.55
2023-02-21T08:13:12.675Z,10.08
2023-02-21T08:15:44.725Z,10.17
2023-02-21T08:18:24.589Z,10.28
2023-02-21T08:20:58.665Z,10.06
2023-02-21T08:23:30.896Z,10.41
2023-02-21T08:26:07.026Z,10.37
2023-02-21T08:28:40.040Z,10.29
2023-02-21T08:31:12.002Z,10.81
2023-02-21T08:33:44.628Z,10.76
2023-02-21T08:36:17.115Z,10.66
2023-02-21T08:38:50.469Z,9.87
2023-02-21T08:41:26.088Z,9.89
2023-02-21T08:44:14.520Z,-145.97
2023-02-21T08:46:49.659Z,-145.97
2023-02-21T08:49:22.884Z,-145.97
2023-02-21T08:51:55.377Z,-145.97
2023-02-21T08:54:28.529Z,-145.97
2023-02-21T08:57:04.680Z,-145.97
2023-02-21T08:59:39.391Z,-145.97
2023-02-21T09:02:19.224Z,-145.97
2023-02-21T09:04:52.196Z,-145.97
2023-02-21T09:07:28.993Z,-145.97
2023-02-21T09:10:02.002Z,-145.97
2023-02-21T09:12:37.236Z,-145.97
2023-02-21T09:15:14.681Z,-145.97
2023-02-21T09:17:47.876Z,-145.97
2023-02-21T09:20:23.668Z,-145.97
2023-02-21T09:22:56.209Z,-145.97
2023-02-21T09:25:29.488Z,-145.97
2023-02-21T09:28:06.298Z,-145.97
2023-02-21T09:30:39.425Z,-145.97
2023-02-21T09:33:12.120Z,-145.97
2023-02-21T09:35:45.384Z,-145.97
2023-02-21T09:38:17.893Z,-145.97
2023-02-21T09:40:56.003Z,-145.97
2023-02-21T09:43:36.490Z,-145.97
2023-02-21T09:46:13.378Z,-145.97
2023-02-21T09:48:48.357Z,-145.97
2023-02-21T09:51:22.302Z,-145.97
2023-02-21T09:53:59.971Z,-145.97
2023-02-21T09:56:37.787Z,-145.97
2023-02-21T09:59:15.079Z,-145.97
2023-02-21T10:02:00.377Z,-145.97
2023-02-21T10:04:51.898Z,-145.97
2023-02-21T10:07:32.650Z,-145.97
2023-02-21T10:10:13.162Z,-145.97
2023-02-21T10:12:53.102Z,-145.97
2023-02-21T10:15:43.856Z,-145.97
2023-02-21T10:18:32.674Z,-145.97
2023-02-21T10:21:08.304Z,-145.97
2023-02-21T10:23:47.382Z,-145.97
2023-02-21T10:26:25.113Z,-145.97
2023-02-21T10:28:59.376Z,-145.97
2023-02-21T10:31:38.259Z,-145.97
2023-02-21T10:34:29.370Z,-145.97
2023-02-21T10:37:07.172Z,-145.97
2023-02-21T10:39:48.369Z,-145.97
2023-02-21T10:42:34.507Z,-145.97
2023-02-21T10:45:09.173Z,-145.97
2023-02-21T10:47:57.405Z,-145.97
2023-02-21T10:50:47.448Z,-145.97
2023-02-21T10:53:33.971Z,-145.97
2023-02-21T10:56:26.768Z,-145.97
2023-02-21T10:59:05.882Z,-145.97
2023-02-21T11:01:46.778Z,-145.97
2023-02-21T11:04:35.206Z,-145.97
2023-02-21T11:07:12.614Z,-145.97
2023-02-21T11:09:46.525Z,-145.97
2023-02-21T11:12:26.398Z,-145.97
2023-02-21T11:15:20.769Z,-145.97
2023-02-21T11:18:09.560Z,-145.97
2023-02-21T11:20:45.022Z,-145.97
2023-02-21T11:23:28.267Z,-145.97
2023-02-21T11:26:11.995Z,-145.97
2023-02-21T11:28:48.745Z,-145.97
2023-02-21T11:31:31.333Z,-145.97
2023-02-21T11:34:07.847Z,-145.97
2023-02-21T11:36:46.080Z,-145.97
2023-02-21T11:39:22.042Z,-145.97
2023-02-21T11:41:55.981Z,-145.97
2023-02-21T11:44:32.507Z,-145.97
2023-02-21T11:47:18.240Z,-145.97
2023-02-21T11:49:58.135Z,-145.97
2023-02-21T11:52:38.559Z,-145.97
2023-02-21T11:55:21.810Z,-145.97
2023-02-21T11:58:03.409Z,-145.97
2023-02-21T12:00:45.735Z,-145.97
2023-02-21T12:03:43.246Z,-145.97
2023-02-21T12:06:23.123Z,-145.97
2023-02-21T12:09:02.652Z,-145.97
2023-02-21T12:11:56.653Z,-145.97
2023-02-21T12:14:49.971Z,-145.97
2023-02-21T12:17:39.605Z,-145.97
2023-02-21T12:20:26.091Z,-145.97
2023-02-21T12:23:12.758Z,-145.97
2023-02-21T12:26:04.803Z,-145.97
2023-02-21T12:28:57.679Z,-145.97
2023-02-21T12:31:44.223Z,-145.97
2023-02-21T12:34:34.407Z,-145.97
2023-02-21T12:37:27.723Z,-145.97
2023-02-21T12:40:15.321Z,-145.97
2023-02-21T12:43:04.682Z,-145.97
2023-02-21T12:45:51.365Z,-145.97
2023-02-21T12:48:31.013Z,-145.97
2023-02-21T12:51:07.367Z,-145.97
2023-02-21T12:53:46.609Z,-145.97
2023-02-21T12:56:24.849Z,-145.97
2023-02-21T12:59:06.165Z,-145.97
2023-02-21T13:02:03.578Z,-145.97
2023-02-21T13:04:46.529Z,-145.97
2023-02-21T13:07:28.854Z,-145.97
2023-02-21T13:10:08.843Z,-145.97
2023-02-21T13:12:47.458Z,-145.97
2023-02-21T13:15:26.209Z,-145.97
2023-02-21T13:18:04.924Z,-145.97
2023-02-21T13:20:41.641Z,-145.97
2023-02-21T13:23:56.322Z,-145.97
2023-02-21T13:27:02.848Z,-145.97
2023-02-21T13:29:39.195Z,-145.97
2023-02-21T13:32:17.534Z,-145.97
2023-02-21T13:34:56.758Z,-145.97
2023-02-21T13:37:32.729Z,-145.97
2023-02-21T13:40:11.758Z,-145.97
2023-02-21T13:42:44.325Z,-145.97
2023-02-21T13:45:22.602Z,-145.97
2023-02-21T13:48:30.329Z,-145.97
2023-02-21T13:51:06.360Z,-145.97
2023-02-21T13:54:12.179Z,-145.97
2023-02-21T13:56:47.086Z,-145.97
2023-02-21T13:59:36.813Z,-145.97
2023-02-21T14:02:48.019Z,-145.97
2023-02-21T14:05:21.734Z,-145.97
2023-02-21T14:08:05.063Z,-145.97
2023-02-21T14:10:42.449Z,-145.97
2023-02-21T14:13:37.022Z,-145.97
2023-02-21T14:16:21.143Z,-145.97
2023-02-21T14:18:59.374Z,-145.97
2023-02-21T14:25:41.663Z,-145.97
2023-02-21T14:28:44.343Z,-145.97
2023-02-21T14:31:17.105Z,-145.97
2023-02-21T14:33:52.851Z,-145.97
2023-02-21T14:48:53.333Z,10.28
2023-02-21T14:52:09.279Z,9.98
2023-02-21T14:55:21.449Z,10.05
2023-02-21T14:58:20.476Z,9.98
2023-02-21T15:01:06.561Z,9.94
2023-02-21T15:03:48.035Z,10.05
2023-02-21T15:06:24.103Z,10.07
2023-02-21T15:08:58.494Z,10.10
2023-02-21T15:11:44.080Z,9.73
2023-02-21T15:14:27.415Z,10.20
2023-02-21T15:20:10.747Z,10.34
2023-02-21T15:22:43.670Z,9.92
2023-02-21T15:25:25.270Z,9.84
2023-02-21T15:28:07.505Z,10.21
2023-02-21T15:30:45.604Z,9.95
2023-02-21T15:33:23.625Z,10.06
2023-02-21T15:36:02.036Z,10.26
2023-02-21T15:38:37.266Z,10.23
2023-02-21T15:41:13.913Z,10.19
2023-02-21T15:43:53.383Z,9.81
2023-02-21T15:46:30.663Z,9.87
2023-02-21T15:49:08.548Z,9.81
2023-02-21T15:51:44.877Z,9.61
2023-02-21T15:54:32.597Z,9.87
2023-02-21T15:57:09.844Z,9.97
2023-02-21T15:59:43.520Z,9.92
2023-02-21T16:02:24.784Z,9.76
2023-02-21T16:04:58.098Z,9.89
2023-02-21T16:07:37.929Z,9.74
2023-02-21T16:10:14.757Z,9.72
2023-02-21T16:12:51.639Z,9.86
2023-02-21T16:15:29.193Z,9.61
2023-02-21T16:18:04.842Z,9.44
2023-02-21T16:20:39.563Z,9.74
2023-02-21T16:23:29.604Z,9.63
2023-02-21T16:26:05.121Z,9.29
2023-02-21T16:28:38.778Z,9.21
2023-02-21T16:31:18.479Z,9.51
2023-02-21T16:33:54.410Z,9.26
2023-02-21T16:36:30.799Z,9.07
2023-02-21T16:39:06.562Z,9.28
2023-02-21T16:41:39.081Z,9.45
2023-02-21T16:44:12.441Z,9.15
2023-02-21T16:46:46.564Z,9.26
2023-02-21T16:49:19.489Z,9.10
2023-02-21T16:51:52.120Z,9.14
2023-02-21T16:54:27.766Z,8.94
2023-02-21T16:57:00.482Z,9.26
2023-02-21T16:59:33.456Z,9.66
2023-02-21T17:02:07.244Z,9.45
2023-02-21T17:04:40.248Z,9.49
2023-02-21T17:07:13.243Z,9.26
2023-02-21T17:09:48.964Z,9.10
2023-02-21T17:12:21.416Z,9.31
2023-02-21T17:14:54.404Z,9.27
2023-02-21T17:17:27.005Z,9.16
2023-02-21T17:20:00.184Z,9.25
2023-02-21T17:22:32.611Z,9.36
2023-02-21T17:25:12.787Z,9.05
2023-02-21T17:27:45.441Z,9.54
2023-02-21T17:30:37.069Z,9.34
2023-02-21T17:33:18.620Z,9.28
2023-02-21T17:35:58.636Z,9.52
2023-02-21T17:38:32.833Z,9.62
2023-02-21T17:41:12.454Z,9.79
2023-02-21T17:43:48.738Z,9.89
2023-02-21T17:46:28.552Z,9.84
2023-02-21T17:49:03.262Z,9.16
2023-02-21T17:51:39.374Z,9.37
2023-02-21T17:54:12.953Z,9.47
2023-02-21T17:56:59.026Z,9.51
2023-02-21T17:59:53.640Z,9.85
2023-02-21T18:02:34.602Z,10.21
2023-02-21T18:05:14.264Z,10.38
2023-02-21T18:07:50.684Z,10.49
2023-02-21T18:10:25.408Z,10.52
2023-02-21T18:13:00.857Z,10.48
2023-02-21T18:15:33.016Z,10.39
2023-02-21T18:18:08.404Z,10.26
2023-02-21T18:20:40.814Z,10.39
2023-02-21T18:23:13.545Z,9.93
2023-02-21T18:25:45.826Z,9.86
2023-02-21T18:28:21.428Z,9.91
2023-02-21T18:30:54.243Z,10.06
2023-02-21T18:33:30.034Z,9.57
2023-02-21T18:36:03.027Z,9.69
2023-02-21T18:38:35.608Z,9.57
2023-02-21T18:41:12.271Z,9.30
2023-02-21T18:43:50.761Z,9.01
2023-02-21T18:46:26.271Z,8.98
2023-02-21T18:48:59.677Z,8.98
2023-02-21T18:51:31.315Z,9.01
2023-02-21T18:54:03.984Z,9.04
2023-02-21T18:56:36.324Z,9.26
2023-02-21T18:59:12.764Z,9.38
2023-02-21T19:01:50.704Z,8.58
2023-02-21T19:04:23.837Z,9.27
2023-02-21T19:06:56.018Z,9.16
2023-02-21T19:09:28.598Z,9.09
2023-02-21T19:12:00.933Z,9.33
2023-02-21T19:14:35.782Z,9.07
2023-02-21T19:17:08.991Z,9.18
2023-02-21T19:19:41.434Z,9.11
2023-02-21T19:22:13.473Z,8.95
2023-02-21T19:24:45.764Z,9.25
2023-02-21T19:27:17.852Z,9.13
2023-02-21T19:29:52.959Z,9.11
2023-02-21T19:32:25.357Z,9.33
2023-02-21T19:34:57.602Z,9.18
2023-02-21T19:37:29.550Z,8.81
2023-02-21T19:40:02.070Z,8.96
2023-02-21T19:42:33.486Z,9.13
2023-02-21T19:45:18.156Z,9.20
2023-02-21T19:47:50.010Z,9.37
2023-02-21T19:50:21.917Z,9.25
2023-02-21T19:52:57.856Z,9.30
2023-02-21T19:55:33.497Z,9.41
2023-02-21T19:58:09.039Z,9.27
2023-02-21T20:00:47.808Z,9.32
2023-02-21T20:03:19.332Z,9.30
2023-02-21T20:05:51.305Z,8.89
2023-02-21T20:08:23.223Z,9.32
2023-02-21T20:10:55.422Z,9.14
2023-02-21T20:13:27.726Z,9.29
2023-02-21T20:16:02.769Z,9.00
2023-02-21T20:18:34.791Z,8.99
2023-02-21T20:21:07.486Z,9.02
2023-02-21T20:23:39.763Z,9.45
2023-02-21T20:26:14.388Z,9.15
2023-02-21T20:28:46.506Z,9.10
2023-02-21T20:31:24.208Z,8.68
2023-02-21T20:33:56.872Z,8.95
2023-02-21T20:36:34.204Z,9.26
2023-02-21T20:39:07.397Z,9.00
2023-02-21T20:41:41.504Z,9.18
2023-02-21T20:44:13.209Z,8.95
2023-02-21T20:46:51.378Z,9.03
2023-02-21T20:49:23.539Z,9.13
2023-02-21T20:51:55.543Z,8.85
2023-02-21T20:54:27.790Z,8.50
2023-02-21T20:57:00.955Z,8.73
2023-02-21T20:59:34.451Z,8.31
2023-02-21T21:02:12.768Z,8.25
2023-02-21T21:04:48.388Z,8.55
2023-02-21T21:07:25.487Z,8.65
2023-02-21T21:09:57.918Z,8.72
2023-02-21T21:12:30.578Z,8.68
2023-02-21T21:15:03.078Z,8.79
2023-02-21T21:17:39.468Z,8.96
2023-02-21T21:20:15.040Z,8.25
2023-02-21T21:22:48.178Z,8.77
2023-02-21T21:25:22.994Z,8.72
2023-02-21T21:27:55.545Z,8.78
2023-02-21T21:30:27.638Z,9.11
2023-02-21T21:33:05.739Z,9.02
2023-02-21T21:35:37.964Z,9.04
2023-02-21T21:38:10.898Z,8.97
2023-02-21T21:40:48.097Z,9.24
2023-02-21T21:43:24.011Z,9.48
2023-02-21T21:45:58.604Z,9.66
2023-02-21T21:48:41.616Z,9.67
2023-02-21T21:51:18.439Z,9.60
2023-02-21T21:53:50.841Z,9.79
2023-02-21T21:56:28.016Z,9.87
2023-02-21T21:59:01.227Z,9.74
2023-02-21T22:01:36.973Z,9.81
2023-02-21T22:04:16.999Z,9.78
2023-02-21T22:06:50.381Z,9.83
2023-02-21T22:09:22.892Z,9.86
2023-02-21T22:11:55.962Z,9.90
2023-02-21T22:14:28.327Z,9.92
2023-02-21T22:17:00.343Z,10.03
2023-02-21T22:19:36.060Z,9.87
2023-02-21T22:22:09.041Z,9.88
2023-02-21T22:24:43.699Z,9.60
2023-02-21T22:27:15.942Z,9.73
2023-02-21T22:29:48.162Z,9.80
2023-02-21T22:32:20.130Z,9.78
2023-02-21T22:34:56.697Z,9.78
2023-02-21T22:37:28.395Z,9.93
2023-02-21T22:40:00.753Z,9.97
2023-02-21T22:42:32.872Z,9.98
2023-02-21T22:45:05.626Z,10.00
2023-02-21T22:47:37.421Z,10.08
2023-02-21T22:50:13.638Z,10.01
2023-02-21T22:52:45.692Z,9.93
2023-02-21T22:55:18.154Z,9.08
2023-02-21T22:57:50.011Z,9.23
2023-02-21T23:00:24.652Z,9.54
2023-02-21T23:02:56.693Z,9.68
2023-02-21T23:05:32.093Z,9.46
2023-02-21T23:08:03.871Z,9.57
2023-02-21T23:10:40.697Z,9.49
2023-02-21T23:13:17.518Z,9.52
2023-02-21T23:15:51.695Z,9.62
2023-02-21T23:18:24.299Z,9.58
2023-02-21T23:21:01.529Z,9.65
2023-02-21T23:23:33.130Z,9.65
2023-02-21T23:26:09.192Z,9.67
2023-02-21T23:28:41.627Z,9.55
2023-02-21T23:31:15.988Z,9.56
2023-02-21T23:33:49.292Z,9.65
2023-02-21T23:36:25.859Z,9.60
2023-02-21T23:38:58.404Z,9.61
2023-02-21T23:41:34.842Z,9.61
2023-02-21T23:44:06.774Z,9.70
2023-02-21T23:46:41.475Z,9.85
2023-02-21T23:49:16.268Z,9.91
2023-02-21T23:51:54.005Z,9.91
2023-02-21T23:54:26.320Z,9.88
2023-02-21T23:57:01.055Z,9.87
2023-02-21T23:59:35.807Z,9.62
